createdAt,value
2022-07-29T00:02:02.332Z,14.90
2022-07-29T00:04:30.193Z,14.90
2022-07-29T00:06:57.514Z,14.90
2022-07-29T00:09:24.810Z,14.90
2022-07-29T00:11:52.650Z,14.80
2022-07-29T00:14:19.928Z,14.80
2022-07-29T00:16:47.236Z,14.70
2022-07-29T00:19:14.839Z,14.70
2022-07-29T00:21:42.043Z,14.60
2022-07-29T00:24:09.414Z,14.60
2022-07-29T00:26:36.975Z,14.60
2022-07-29T00:31:52.715Z,14.50
2022-07-29T00:34:38.350Z,14.40
2022-07-29T00:37:05.850Z,14.40
2022-07-29T00:39:35.253Z,14.30
2022-07-29T00:42:05.796Z,14.30
2022-07-29T00:44:40.971Z,14.30
2022-07-29T00:47:09.410Z,14.30
2022-07-29T00:49:37.707Z,14.20
2022-07-29T00:52:06.448Z,14.20
2022-07-29T00:54:35.530Z,14.20
2022-07-29T00:57:06.585Z,14.20
2022-07-29T00:59:34.426Z,14.10
2022-07-29T01:02:04.127Z,14.10
2022-07-29T01:04:33.033Z,14.00
2022-07-29T01:07:03.131Z,14.00
2022-07-29T01:09:42.114Z,14.00
2022-07-29T01:12:29.723Z,14.00
2022-07-29T01:14:57.381Z,13.90
2022-07-29T01:17:33.389Z,13.90
2022-07-29T01:20:16.188Z,13.90
2022-07-29T01:23:00.829Z,13.80
2022-07-29T01:25:46.056Z,13.80
2022-07-29T01:28:38.925Z,13.80
2022-07-29T01:31:07.433Z,13.70
2022-07-29T01:33:52.268Z,13.70
2022-07-29T01:36:34.631Z,13.70
2022-07-29T01:39:26.810Z,13.60
2022-07-29T01:42:07.017Z,13.60
2022-07-29T01:44:40.959Z,13.60
2022-07-29T01:47:16.804Z,13.70
2022-07-29T01:49:51.049Z,13.60
2022-07-29T01:52:37.430Z,13.60
2022-07-29T01:55:10.896Z,13.60
2022-07-29T01:57:41.453Z,13.50
2022-07-29T02:00:10.303Z,13.50
2022-07-29T02:02:44.978Z,13.50
2022-07-29T02:05:15.774Z,13.50
2022-07-29T02:07:45.445Z,13.40
2022-07-29T02:10:13.728Z,13.40
2022-07-29T02:12:43.419Z,13.40
2022-07-29T02:15:18.007Z,13.30
2022-07-29T02:17:52.510Z,13.40
2022-07-29T02:20:20.380Z,13.30
2022-07-29T02:22:50.485Z,13.30
2022-07-29T02:25:19.289Z,13.30
2022-07-29T02:27:48.040Z,13.20
2022-07-29T02:30:15.774Z,13.20
2022-07-29T02:32:44.411Z,13.20
2022-07-29T02:35:16.454Z,13.20
2022-07-29T02:38:06.773Z,13.10
2022-07-29T02:40:37.222Z,13.10
2022-07-29T02:43:07.762Z,13.10
2022-07-29T02:45:37.743Z,13.00
2022-07-29T02:48:11.034Z,13.00
2022-07-29T02:50:49.873Z,12.90
2022-07-29T02:53:20.104Z,12.90
2022-07-29T02:55:57.505Z,12.90
2022-07-29T02:58:34.561Z,12.90
2022-07-29T03:01:10.166Z,12.90
2022-07-29T03:03:38.853Z,12.80
2022-07-29T03:06:07.539Z,12.80
2022-07-29T03:08:35.914Z,12.80
2022-07-29T03:11:04.408Z,12.80
2022-07-29T03:13:32.142Z,12.80
2022-07-29T03:16:00.675Z,12.80
2022-07-29T03:18:28.641Z,12.80
2022-07-29T03:20:56.544Z,12.80
2022-07-29T03:23:25.084Z,12.80
2022-07-29T03:25:52.955Z,12.80
2022-07-29T03:28:22.480Z,12.80
2022-07-29T03:30:54.795Z,12.90
2022-07-29T03:33:22.623Z,12.90
2022-07-29T03:35:49.780Z,12.90
2022-07-29T03:38:17.038Z,13.00
2022-07-29T03:40:51.104Z,13.00
2022-07-29T03:43:19.777Z,13.00
2022-07-29T03:45:52.332Z,13.10
2022-07-29T03:48:22.991Z,13.10
2022-07-29T03:50:51.993Z,13.20
2022-07-29T03:53:19.391Z,13.10
2022-07-29T03:55:49.979Z,13.20
2022-07-29T03:58:19.302Z,13.20
2022-07-29T04:00:48.161Z,13.30
2022-07-29T04:03:17.128Z,13.30
2022-07-29T04:05:44.609Z,13.40
2022-07-29T04:08:11.764Z,13.40
2022-07-29T04:10:39.729Z,13.40
2022-07-29T04:13:07.090Z,13.50
2022-07-29T04:15:34.390Z,13.50
2022-07-29T04:18:01.602Z,13.60
2022-07-29T04:20:29.057Z,13.60
2022-07-29T04:22:56.284Z,13.60
2022-07-29T04:25:24.085Z,13.70
2022-07-29T04:28:03.721Z,13.70
2022-07-29T04:30:32.986Z,13.80
2022-07-29T04:33:01.988Z,13.80
2022-07-29T04:35:30.762Z,13.80
2022-07-29T04:38:07.772Z,13.80
2022-07-29T04:40:42.819Z,13.90
2022-07-29T04:43:10.627Z,13.90
2022-07-29T04:45:39.787Z,14.00
2022-07-29T04:48:07.097Z,14.00
2022-07-29T04:50:34.519Z,14.10
2022-07-29T04:53:01.806Z,14.20
2022-07-29T04:55:28.960Z,14.20
2022-07-29T04:57:56.693Z,14.30
2022-07-29T05:00:28.048Z,14.30
2022-07-29T05:03:00.889Z,14.40
2022-07-29T05:05:28.055Z,14.50
2022-07-29T05:07:55.290Z,14.50
2022-07-29T05:10:22.755Z,14.50
2022-07-29T05:12:50.083Z,14.60
2022-07-29T05:15:18.613Z,14.70
2022-07-29T05:17:46.043Z,14.80
2022-07-29T05:20:13.407Z,14.90
2022-07-29T05:22:40.663Z,14.90
2022-07-29T05:25:10.090Z,15.10
2022-07-29T05:27:37.937Z,15.20
2022-07-29T05:30:05.548Z,15.30
2022-07-29T05:32:32.948Z,15.30
2022-07-29T05:35:00.175Z,15.50
2022-07-29T05:37:27.568Z,15.50
2022-07-29T05:39:56.783Z,15.60
2022-07-29T05:42:25.489Z,15.70
2022-07-29T05:44:53.177Z,15.80
2022-07-29T05:47:20.781Z,15.80
2022-07-29T05:49:48.081Z,15.90
2022-07-29T05:52:15.581Z,16.00
2022-07-29T05:54:43.067Z,16.10
2022-07-29T05:57:17.862Z,16.20
2022-07-29T05:59:45.665Z,16.30
2022-07-29T06:02:12.997Z,16.30
2022-07-29T06:04:40.355Z,16.40
2022-07-29T06:07:07.874Z,16.50
2022-07-29T06:09:36.298Z,16.60
2022-07-29T06:12:04.541Z,16.70
2022-07-29T06:14:31.990Z,16.80
2022-07-29T06:16:59.235Z,16.90
2022-07-29T06:19:26.892Z,17.00
2022-07-29T06:21:54.529Z,17.10
2022-07-29T06:24:21.717Z,17.20
2022-07-29T06:26:48.911Z,17.30
2022-07-29T06:29:16.361Z,17.40
2022-07-29T06:31:43.612Z,17.50
2022-07-29T06:34:10.867Z,17.60
2022-07-29T06:36:39.764Z,17.70
2022-07-29T06:39:08.996Z,17.80
2022-07-29T06:41:36.688Z,17.90
2022-07-29T06:44:10.516Z,18.00
2022-07-29T06:46:37.882Z,18.10
2022-07-29T06:49:05.923Z,18.20
2022-07-29T06:51:33.655Z,18.30
2022-07-29T06:54:02.626Z,18.40
2022-07-29T06:56:39.061Z,18.40
2022-07-29T06:59:09.312Z,18.50
2022-07-29T07:01:38.238Z,18.50
2022-07-29T07:04:05.836Z,18.60
2022-07-29T07:06:33.347Z,18.60
2022-07-29T07:09:00.827Z,18.70
2022-07-29T07:11:28.292Z,18.70
2022-07-29T07:14:00.660Z,18.80
2022-07-29T07:16:30.222Z,18.80
2022-07-29T07:18:57.682Z,18.80
2022-07-29T07:21:24.930Z,18.90
2022-07-29T07:23:52.168Z,19.00
2022-07-29T07:26:19.568Z,19.10
2022-07-29T07:28:47.138Z,19.10
2022-07-29T07:31:15.282Z,19.20
2022-07-29T07:33:42.782Z,19.20
2022-07-29T07:36:10.159Z,19.20
2022-07-29T07:38:37.491Z,19.20
2022-07-29T07:41:04.979Z,19.30
2022-07-29T07:43:32.194Z,19.40
2022-07-29T07:45:59.492Z,19.40
2022-07-29T07:48:26.944Z,19.40
2022-07-29T07:50:55.246Z,19.50
2022-07-29T07:53:22.956Z,19.60
2022-07-29T07:56:10.083Z,19.70
2022-07-29T07:58:38.021Z,19.80
2022-07-29T08:01:05.505Z,19.80
2022-07-29T08:03:33.768Z,19.90
2022-07-29T08:06:01.047Z,19.90
2022-07-29T08:08:28.659Z,20.00
2022-07-29T08:11:00.643Z,20.10
2022-07-29T08:13:31.424Z,20.20
2022-07-29T08:16:01.600Z,20.20
2022-07-29T08:18:30.913Z,20.30
2022-07-29T08:20:59.428Z,20.30
2022-07-29T08:23:31.644Z,20.30
2022-07-29T08:26:13.970Z,20.40
2022-07-29T08:28:46.986Z,20.40
2022-07-29T08:31:15.404Z,20.50
2022-07-29T08:33:43.418Z,20.50
2022-07-29T08:36:10.757Z,20.60
2022-07-29T08:38:38.189Z,20.70
2022-07-29T08:41:05.662Z,20.80
2022-07-29T08:43:33.186Z,20.90
2022-07-29T08:46:01.958Z,21.00
2022-07-29T08:48:29.218Z,21.00
2022-07-29T08:50:58.040Z,21.10
2022-07-29T08:53:29.221Z,21.10
2022-07-29T08:55:57.129Z,21.20
2022-07-29T08:58:25.992Z,21.20
2022-07-29T09:00:55.921Z,21.20
2022-07-29T09:03:28.424Z,21.30
2022-07-29T09:05:56.063Z,21.40
2022-07-29T09:08:24.119Z,21.40
2022-07-29T09:10:52.582Z,21.40
2022-07-29T09:13:20.069Z,21.40
2022-07-29T09:15:47.482Z,21.50
2022-07-29T09:18:37.710Z,21.60
2022-07-29T09:21:25.589Z,21.70
2022-07-29T09:24:03.497Z,21.70
2022-07-29T09:26:32.022Z,21.80
2022-07-29T09:29:00.187Z,21.80
2022-07-29T09:31:39.661Z,21.90
2022-07-29T09:34:08.722Z,22.00
2022-07-29T09:36:46.044Z,22.10
2022-07-29T09:39:15.342Z,22.20
2022-07-29T09:41:56.368Z,22.20
2022-07-29T09:44:25.693Z,22.30
2022-07-29T09:47:10.330Z,22.40
2022-07-29T09:49:53.188Z,22.40
2022-07-29T09:52:21.319Z,22.60
2022-07-29T09:54:49.186Z,22.60
2022-07-29T09:57:30.944Z,22.60
2022-07-29T10:00:03.678Z,22.70
2022-07-29T10:02:42.139Z,22.70
2022-07-29T10:05:26.755Z,22.80
2022-07-29T10:08:04.213Z,22.80
2022-07-29T10:10:36.978Z,22.90
2022-07-29T10:13:10.905Z,23.00
2022-07-29T10:15:45.342Z,23.10
2022-07-29T10:18:14.589Z,23.20
2022-07-29T10:20:42.213Z,23.30
2022-07-29T10:23:10.604Z,23.30
2022-07-29T10:25:38.025Z,23.40
2022-07-29T10:28:07.453Z,23.50
2022-07-29T10:30:35.208Z,23.50
2022-07-29T10:33:15.767Z,23.70
2022-07-29T10:35:56.800Z,23.90
2022-07-29T10:38:52.526Z,24.10
2022-07-29T10:41:49.766Z,24.30
2022-07-29T10:44:23.095Z,24.30
2022-07-29T10:46:52.843Z,24.40
2022-07-29T10:49:27.208Z,24.40
2022-07-29T10:51:57.796Z,24.50
2022-07-29T10:54:37.439Z,24.50
2022-07-29T10:57:16.664Z,24.60
2022-07-29T10:59:52.917Z,24.70
2022-07-29T11:02:41.837Z,24.80
2022-07-29T11:05:12.065Z,24.90
2022-07-29T11:08:00.436Z,24.90
2022-07-29T11:10:31.299Z,25.10
2022-07-29T11:12:59.527Z,25.10
2022-07-29T11:18:17.471Z,25.20
2022-07-29T11:20:51.001Z,25.20
2022-07-29T11:23:19.026Z,25.30
2022-07-29T11:26:07.806Z,25.40
2022-07-29T11:28:36.479Z,25.40
2022-07-29T11:31:05.650Z,25.30
2022-07-29T11:36:28.098Z,25.10
2022-07-29T11:39:43.023Z,25.10
2022-07-29T11:42:28.819Z,25.10
2022-07-29T11:45:43.362Z,25.20
2022-07-29T11:48:31.562Z,25.30
2022-07-29T11:50:54.128Z,25.30
2022-07-29T11:53:23.205Z,25.40
2022-07-29T11:55:56.471Z,25.40
2022-07-29T11:58:27.221Z,25.50
2022-07-29T12:00:56.247Z,25.50
2022-07-29T12:06:18.038Z,25.50
2022-07-29T12:07:02.500Z,25.50
2022-07-29T12:08:46.033Z,25.50
2022-07-29T12:11:23.450Z,25.50
2022-07-29T12:13:52.659Z,25.50
2022-07-29T12:16:27.910Z,25.50
2022-07-29T12:18:59.188Z,25.60
2022-07-29T12:21:26.793Z,25.60
2022-07-29T12:24:01.826Z,25.70
2022-07-29T12:26:34.965Z,25.70
2022-07-29T12:29:03.824Z,25.80
2022-07-29T12:31:43.003Z,25.80
2022-07-29T12:34:14.813Z,25.90
2022-07-29T12:36:43.658Z,25.90
2022-07-29T12:39:12.410Z,25.90
2022-07-29T12:41:40.126Z,25.90
2022-07-29T12:44:07.364Z,25.90
2022-07-29T12:46:34.904Z,26.00
2022-07-29T12:49:04.144Z,26.00
2022-07-29T12:51:35.705Z,26.00
2022-07-29T12:54:05.153Z,26.20
2022-07-29T12:56:42.666Z,26.40
2022-07-29T12:59:21.005Z,26.70
2022-07-29T13:01:50.862Z,26.90
2022-07-29T13:04:27.558Z,27.10
2022-07-29T13:07:08.454Z,27.20
2022-07-29T13:09:46.605Z,27.10
2022-07-29T13:12:15.669Z,27.00
2022-07-29T13:14:46.204Z,27.10
2022-07-29T13:17:32.750Z,27.00
2022-07-29T13:20:13.363Z,27.00
2022-07-29T13:22:44.014Z,26.90
2022-07-29T13:25:11.685Z,26.70
2022-07-29T13:27:40.475Z,26.80
2022-07-29T13:30:10.155Z,26.80
2022-07-29T13:32:38.695Z,27.00
2022-07-29T13:35:08.303Z,27.00
2022-07-29T13:37:39.381Z,27.10
2022-07-29T13:40:08.726Z,27.10
2022-07-29T13:42:36.647Z,27.00
2022-07-29T13:45:05.560Z,27.10
2022-07-29T13:47:33.450Z,27.20
2022-07-29T13:50:06.302Z,27.40
2022-07-29T13:52:35.612Z,27.60
2022-07-29T13:55:03.953Z,27.90
2022-07-29T13:57:31.461Z,28.00
2022-07-29T13:59:59.007Z,28.00
2022-07-29T14:02:26.417Z,27.90
2022-07-29T14:04:56.625Z,27.60
2022-07-29T14:07:24.805Z,27.40
2022-07-29T14:09:52.314Z,27.20
2022-07-29T14:12:20.149Z,27.00
2022-07-29T14:14:47.645Z,26.90
2022-07-29T14:17:15.785Z,26.80
2022-07-29T14:19:43.230Z,26.90
2022-07-29T14:22:11.014Z,27.00
2022-07-29T14:24:38.983Z,27.20
2022-07-29T14:27:07.572Z,27.30
2022-07-29T14:29:38.224Z,27.20
2022-07-29T14:32:15.957Z,27.40
2022-07-29T14:34:43.495Z,27.80
2022-07-29T14:37:15.889Z,28.30
2022-07-29T14:39:43.613Z,28.90
2022-07-29T14:42:12.967Z,29.60
2022-07-29T14:44:42.507Z,30.10
2022-07-29T14:47:11.643Z,30.60
2022-07-29T14:49:39.106Z,31.10
2022-07-29T14:52:06.456Z,31.50
2022-07-29T14:54:33.698Z,31.60
2022-07-29T14:57:01.945Z,31.60
2022-07-29T14:59:29.477Z,31.40
2022-07-29T15:01:57.142Z,31.40
2022-07-29T15:04:25.052Z,31.40
2022-07-29T15:06:52.959Z,31.60
2022-07-29T15:09:20.314Z,31.60
2022-07-29T15:11:47.752Z,31.70
2022-07-29T15:14:15.015Z,31.70
2022-07-29T15:16:43.804Z,31.70
2022-07-29T15:19:11.972Z,31.70
2022-07-29T15:21:41.336Z,31.80
2022-07-29T15:24:18.092Z,31.90
2022-07-29T15:26:45.853Z,31.90
2022-07-29T15:29:13.155Z,31.90
2022-07-29T15:31:42.025Z,31.60
2022-07-29T15:34:09.361Z,31.20
2022-07-29T15:36:53.390Z,31.00
2022-07-29T15:39:24.898Z,30.80
2022-07-29T15:41:55.162Z,30.80
2022-07-29T15:44:22.994Z,30.80
2022-07-29T15:47:07.108Z,30.70
2022-07-29T15:49:48.470Z,30.70
2022-07-29T15:52:25.760Z,30.70
2022-07-29T15:54:56.024Z,30.70
2022-07-29T15:57:24.969Z,30.50
2022-07-29T15:59:52.486Z,30.30
2022-07-29T16:02:20.412Z,30.00
2022-07-29T16:04:47.779Z,29.80
2022-07-29T16:07:19.947Z,29.40
2022-07-29T16:09:52.641Z,29.20
2022-07-29T16:12:20.875Z,29.10
2022-07-29T16:14:49.619Z,29.00
2022-07-29T16:17:17.829Z,28.90
2022-07-29T16:19:45.769Z,28.80
2022-07-29T16:22:13.706Z,28.60
2022-07-29T16:24:41.160Z,28.50
2022-07-29T16:27:11.563Z,28.50
2022-07-29T16:29:39.023Z,28.60
2022-07-29T16:32:07.060Z,28.70
2022-07-29T16:34:34.902Z,28.70
2022-07-29T16:37:02.717Z,28.80
2022-07-29T16:39:30.178Z,28.80
2022-07-29T16:42:00.481Z,28.70
2022-07-29T16:44:29.175Z,28.20
2022-07-29T16:46:59.212Z,28.10
2022-07-29T16:49:28.337Z,28.00
2022-07-29T16:51:55.901Z,28.00
2022-07-29T16:54:23.322Z,28.00
2022-07-29T16:56:50.581Z,28.00
2022-07-29T16:59:18.015Z,28.10
2022-07-29T17:01:45.267Z,28.10
2022-07-29T17:04:14.950Z,28.10
2022-07-29T17:06:42.763Z,28.20
2022-07-29T17:09:11.755Z,28.30
2022-07-29T17:11:52.374Z,28.50
2022-07-29T17:14:28.235Z,28.70
2022-07-29T17:17:00.495Z,28.90
2022-07-29T17:19:35.293Z,29.00
2022-07-29T17:22:11.620Z,29.10
2022-07-29T17:24:41.903Z,29.00
2022-07-29T17:27:10.590Z,28.90
2022-07-29T17:29:39.136Z,28.80
2022-07-29T17:32:08.129Z,28.80
2022-07-29T17:34:36.855Z,28.70
2022-07-29T17:37:06.376Z,28.60
2022-07-29T17:39:35.669Z,28.50
2022-07-29T17:42:04.280Z,28.40
2022-07-29T17:44:31.482Z,28.20
2022-07-29T17:47:01.019Z,28.10
2022-07-29T17:49:28.761Z,27.90
2022-07-29T17:52:00.494Z,27.70
2022-07-29T17:54:29.014Z,27.50
2022-07-29T17:56:56.608Z,27.20
2022-07-29T17:59:24.042Z,26.70
2022-07-29T18:01:51.492Z,26.30
2022-07-29T18:04:21.090Z,25.90
2022-07-29T18:06:48.383Z,25.40
2022-07-29T18:09:15.815Z,25.00
2022-07-29T18:11:44.360Z,24.60
2022-07-29T18:14:13.883Z,24.30
2022-07-29T18:16:41.577Z,23.90
2022-07-29T18:19:08.800Z,23.60
2022-07-29T18:21:44.303Z,23.30
2022-07-29T18:24:19.519Z,23.10
2022-07-29T18:26:46.750Z,22.80
2022-07-29T18:29:13.900Z,22.60
2022-07-29T18:31:41.449Z,22.40
2022-07-29T18:34:08.762Z,22.20
2022-07-29T18:36:36.095Z,22.00
2022-07-29T18:39:03.717Z,21.80
2022-07-29T18:41:31.408Z,21.70
2022-07-29T18:43:58.583Z,21.60
2022-07-29T18:46:26.063Z,21.40
2022-07-29T18:48:53.528Z,21.20
2022-07-29T18:51:22.716Z,21.10
2022-07-29T18:53:50.405Z,21.00
2022-07-29T18:56:17.556Z,20.90
2022-07-29T18:58:44.798Z,20.70
2022-07-29T19:01:16.401Z,20.60
2022-07-29T19:03:44.103Z,20.60
2022-07-29T19:06:11.241Z,20.50
2022-07-29T19:08:38.675Z,20.40
2022-07-29T19:11:07.738Z,20.30
2022-07-29T19:13:37.021Z,20.20
2022-07-29T19:16:05.755Z,20.10
2022-07-29T19:18:33.060Z,20.00
2022-07-29T19:21:00.368Z,20.00
2022-07-29T19:23:27.733Z,19.90
2022-07-29T19:25:54.898Z,19.80
2022-07-29T19:28:22.703Z,19.80
2022-07-29T19:30:50.233Z,19.70
2022-07-29T19:33:19.038Z,19.70
2022-07-29T19:35:48.385Z,19.60
2022-07-29T19:38:18.003Z,19.50
2022-07-29T19:40:45.193Z,19.50
2022-07-29T19:43:51.112Z,19.40
2022-07-29T19:45:59.869Z,19.40
2022-07-29T19:48:27.070Z,19.30
2022-07-29T19:50:54.342Z,19.20
2022-07-29T19:53:22.027Z,19.10
2022-07-29T19:55:49.547Z,19.10
2022-07-29T19:58:16.741Z,19.10
2022-07-29T20:00:44.624Z,19.00
2022-07-29T20:03:12.958Z,18.90
2022-07-29T20:05:40.282Z,18.80
2022-07-29T20:08:07.791Z,18.70
2022-07-29T20:10:35.001Z,18.70
2022-07-29T20:13:02.285Z,18.60
2022-07-29T20:15:29.995Z,18.60
2022-07-29T20:17:57.533Z,18.50
2022-07-29T20:20:25.385Z,18.40
2022-07-29T20:22:53.751Z,18.40
2022-07-29T20:25:21.521Z,18.30
2022-07-29T20:27:52.513Z,18.20
2022-07-29T20:30:21.201Z,18.20
2022-07-29T20:32:49.093Z,18.10
2022-07-29T20:35:16.772Z,18.10
2022-07-29T20:37:52.218Z,18.10
2022-07-29T20:40:23.862Z,18.00
2022-07-29T20:42:52.038Z,18.00
2022-07-29T20:45:20.141Z,18.00
2022-07-29T20:47:47.469Z,18.00
2022-07-29T20:50:15.038Z,17.90
2022-07-29T20:52:44.146Z,17.80
2022-07-29T20:55:11.677Z,17.80
2022-07-29T20:57:40.226Z,17.80
2022-07-29T21:00:08.800Z,17.70
2022-07-29T21:02:36.750Z,17.70
2022-07-29T21:05:04.686Z,17.70
2022-07-29T21:07:32.027Z,17.70
2022-07-29T21:09:59.281Z,17.70
2022-07-29T21:12:26.809Z,17.70
2022-07-29T21:14:54.044Z,17.70
2022-07-29T21:17:22.421Z,17.70
2022-07-29T21:19:55.420Z,17.70
2022-07-29T21:22:22.695Z,17.70
2022-07-29T21:24:50.040Z,17.70
2022-07-29T21:27:38.407Z,17.70
2022-07-29T21:30:07.708Z,17.70
2022-07-29T21:32:35.194Z,17.60
2022-07-29T21:35:02.554Z,17.60
2022-07-29T21:37:29.827Z,17.50
2022-07-29T21:39:57.481Z,17.50
2022-07-29T21:42:24.684Z,17.50
2022-07-29T21:44:52.089Z,17.40
2022-07-29T21:47:19.504Z,17.40
2022-07-29T21:49:46.795Z,17.40
2022-07-29T21:52:16.974Z,17.40
2022-07-29T21:54:45.635Z,17.30
2022-07-29T21:57:12.823Z,17.30
2022-07-29T21:59:40.052Z,17.30
2022-07-29T22:02:07.457Z,17.20
2022-07-29T22:04:35.915Z,17.20
2022-07-29T22:07:03.668Z,17.20
2022-07-29T22:09:31.479Z,17.20
2022-07-29T22:11:58.756Z,17.10
2022-07-29T22:14:25.959Z,17.10
2022-07-29T22:16:53.380Z,17.10
2022-07-29T22:19:27.519Z,17.10
2022-07-29T22:21:55.092Z,17.10
2022-07-29T22:24:22.443Z,17.00
2022-07-29T22:26:49.659Z,17.00
2022-07-29T22:29:17.900Z,17.00
2022-07-29T22:31:45.485Z,16.90
2022-07-29T22:34:15.831Z,16.90
2022-07-29T22:36:43.509Z,16.90
2022-07-29T22:39:10.664Z,16.80
2022-07-29T22:41:42.707Z,16.80
2022-07-29T22:44:10.540Z,16.80
2022-07-29T22:46:38.813Z,16.70
2022-07-29T22:49:06.440Z,16.70
2022-07-29T22:51:34.093Z,16.70
2022-07-29T22:54:02.059Z,16.70
2022-07-29T22:56:29.307Z,16.70
2022-07-29T22:58:56.890Z,16.60
2022-07-29T23:01:37.471Z,16.60
2022-07-29T23:04:06.630Z,16.60
2022-07-29T23:06:34.471Z,16.60
2022-07-29T23:09:02.052Z,16.50
2022-07-29T23:11:29.716Z,16.50
2022-07-29T23:13:57.298Z,16.50
2022-07-29T23:16:26.070Z,16.50
2022-07-29T23:18:54.853Z,16.50
2022-07-29T23:21:22.267Z,16.50
2022-07-29T23:23:50.174Z,16.40
2022-07-29T23:26:17.864Z,16.40
2022-07-29T23:28:46.888Z,16.40
2022-07-29T23:31:14.307Z,16.30
2022-07-29T23:33:42.288Z,16.30
2022-07-29T23:36:09.542Z,16.20
2022-07-29T23:38:41.008Z,16.20
2022-07-29T23:41:09.900Z,16.20
2022-07-29T23:43:37.774Z,16.10
2022-07-29T23:46:06.520Z,16.10
2022-07-29T23:48:34.652Z,16.10
2022-07-29T23:51:01.919Z,16.10
2022-07-29T23:53:29.567Z,16.10
2022-07-29T23:55:57.174Z,16.10
2022-07-29T23:58:24.371Z,16.00
